Time,TemperatureF,DewpointF,PressureIn,WindDirection,WindDirectionDegrees,WindSpeedMPH,WindSpeedGustMPH,Humidity,HourlyPrecipIn,Conditions,Clouds,dailyrainin,SoftwareType,DateUTC
2013-10-25 00:14:00,31.4,26.0,30.29,WSW,248,0.0,1.0,80,0.00,,,0.00,weatherlink.com 1.10,2013-10-25 05:14:00,
2013-10-25 00:29:00,32.2,26.0,30.29,WSW,250,0.0,1.0,79,0.00,,,0.00,weatherlink.com 1.10,2013-10-25 05:29:00,
2013-10-25 00:44:00,32.5,26.0,30.29,WSW,249,0.0,1.0,77,0.00,,,0.00,weatherlink.com 1.10,2013-10-25 05:44:00,
2013-10-25 00:59:00,32.3,26.0,30.30,WSW,249,0.0,1.0,78,0.00,,,0.00,weatherlink.com 1.10,2013-10-25 05:59:00,
2013-10-25 01:14:00,31.9,26.0,30.30,West,278,0.0,1.0,79,0.00,,,0.00,weatherlink.com 1.10,2013-10-25 06:14:00,
2013-10-25 01:29:00,31.7,26.0,30.30,West,277,0.0,1.0,79,0.00,,,0.00,weatherlink.com 1.10,2013-10-25 06:29:00,
2013-10-25 01:44:00,31.6,26.0,30.30,WNW,285,0.0,1.0,79,0.00,,,0.00,weatherlink.com 1.10,2013-10-25 06:44:00,
2013-10-25 01:59:00,31.6,26.0,30.31,West,271,0.0,2.0,79,0.00,,,0.00,weatherlink.com 1.10,2013-10-25 06:59:00,
2013-10-25 02:14:00,31.3,26.0,30.31,West,274,0.0,1.0,80,0.00,,,0.00,weatherlink.com 1.10,2013-10-25 07:14:00,
2013-10-25 02:44:00,31.0,26.0,30.31,West,274,0.0,1.0,81,0.00,,,0.00,weatherlink.com 1.10,2013-10-25 07:44:00,
2013-10-25 02:59:00,30.5,26.0,30.31,West,274,0.0,0.0,82,0.00,,,0.00,weatherlink.com 1.10,2013-10-25 07:59:00,
2013-10-25 03:14:00,30.7,26.0,30.31,WSW,242,0.0,1.0,83,0.00,,,0.00,weatherlink.com 1.10,2013-10-25 08:14:00,
2013-10-25 03:29:00,30.6,26.0,30.31,West,262,0.0,1.0,83,0.00,,,0.00,weatherlink.com 1.10,2013-10-25 08:29:00,
2013-10-25 03:44:00,30.7,26.0,30.32,West,266,0.0,2.0,84,0.00,,,0.00,weatherlink.com 1.10,2013-10-25 08:44:00,
2013-10-25 03:59:00,31.0,27.0,30.32,WSW,250,2.0,2.0,84,0.00,,,0.00,weatherlink.com 1.10,2013-10-25 08:59:00,
2013-10-25 04:14:00,30.8,26.0,30.32,West,277,0.0,1.0,83,0.00,,,0.00,weatherlink.com 1.10,2013-10-25 09:14:00,
2013-10-25 04:29:00,30.6,26.0,30.32,WSW,257,0.0,2.0,84,0.00,,,0.00,weatherlink.com 1.10,2013-10-25 09:29:00,
2013-10-25 04:44:00,30.4,26.0,30.33,West,273,0.0,2.0,84,0.00,,,0.00,weatherlink.com 1.10,2013-10-25 09:44:00,
2013-10-25 04:59:00,30.1,26.0,30.34,WNW,283,0.0,0.0,84,0.00,,,0.00,weatherlink.com 1.10,2013-10-25 09:59:00,
2013-10-25 05:14:00,29.9,26.0,30.33,West,271,0.0,2.0,84,0.00,,,0.00,weatherlink.com 1.10,2013-10-25 10:14:00,
2013-10-25 05:29:00,29.6,26.0,30.34,West,273,1.0,2.0,85,0.00,,,0.00,weatherlink.com 1.10,2013-10-25 10:29:00,
2013-10-25 05:44:00,29.9,26.0,30.34,West,269,1.0,3.0,86,0.00,,,0.00,weatherlink.com 1.10,2013-10-25 10:44:00,
2013-10-25 05:59:00,30.2,27.0,30.34,West,270,0.0,3.0,86,0.00,,,0.00,weatherlink.com 1.10,2013-10-25 10:59:00,
2013-10-25 06:14:00,30.5,27.0,30.34,WSW,257,2.0,3.0,86,0.00,,,0.00,weatherlink.com 1.10,2013-10-25 11:14:00,
2013-10-25 06:29:00,30.5,27.0,30.34,West,269,1.0,2.0,86,0.00,,,0.00,weatherlink.com 1.10,2013-10-25 11:29:00,
2013-10-25 06:44:00,30.5,27.0,30.35,WNW,293,0.0,3.0,87,0.00,,,0.00,weatherlink.com 1.10,2013-10-25 11:44:00,
2013-10-25 06:59:00,30.7,27.0,30.34,SE,136,0.0,2.0,86,0.00,,,0.00,weatherlink.com 1.10,2013-10-25 11:59:00,
2013-10-25 07:14:00,30.6,27.0,30.34,West,269,0.0,2.0,86,0.00,,,0.00,weatherlink.com 1.10,2013-10-25 12:14:00,
2013-10-25 07:30:00,30.9,27.0,30.35,WNW,302,2.0,3.0,86,0.00,,,0.00,weatherlink.com 1.10,2013-10-25 12:30:00,
2013-10-25 07:44:00,31.2,28.0,30.35,WSW,240,1.0,3.0,86,0.00,,,0.00,weatherlink.com 1.10,2013-10-25 12:44:00,
2013-10-25 07:59:00,31.3,28.0,30.36,NW,307,1.0,2.0,86,0.00,,,0.00,weatherlink.com 1.10,2013-10-25 12:59:00,
2013-10-25 08:14:00,31.5,28.0,30.36,West,263,0.0,2.0,85,0.00,,,0.00,weatherlink.com 1.10,2013-10-25 13:14:00,
2013-10-25 08:29:00,32.3,28.0,30.36,WNW,297,0.0,2.0,83,0.00,,,0.00,weatherlink.com 1.10,2013-10-25 13:29:00,
2013-10-25 08:44:00,33.8,29.0,30.36,WSW,250,0.0,1.0,83,0.00,,,0.00,weatherlink.com 1.10,2013-10-25 13:44:00,
2013-10-25 09:00:00,34.8,30.0,30.36,SSE,153,1.0,4.0,81,0.00,,,0.00,weatherlink.com 1.10,2013-10-25 14:00:00,
2013-10-25 09:15:00,35.6,30.0,30.36,West,263,1.0,4.0,80,0.00,,,0.00,weatherlink.com 1.10,2013-10-25 14:15:00,
2013-10-25 09:30:00,36.5,31.0,30.36,West,262,0.0,2.0,79,0.00,,,0.00,weatherlink.com 1.10,2013-10-25 14:30:00,
2013-10-25 09:45:00,37.5,30.0,30.36,West,269,2.0,5.0,75,0.00,,,0.00,weatherlink.com 1.10,2013-10-25 14:45:00,
2013-10-25 10:00:00,38.0,30.0,30.36,WNW,302,1.0,4.0,73,0.00,,,0.00,weatherlink.com 1.10,2013-10-25 15:00:00,
2013-10-25 10:15:00,38.8,30.0,30.36,WNW,290,1.0,6.0,71,0.00,,,0.00,weatherlink.com 1.10,2013-10-25 15:15:00,
2013-10-25 10:30:00,40.3,30.0,30.35,West,278,1.0,7.0,67,0.00,,,0.00,weatherlink.com 1.10,2013-10-25 15:30:00,
2013-10-25 10:45:00,41.1,30.0,30.34,WSW,257,3.0,4.0,65,0.00,,,0.00,weatherlink.com 1.10,2013-10-25 15:45:00,
2013-10-25 11:00:00,41.5,31.0,30.33,WNW,283,1.0,4.0,66,0.00,,,0.00,weatherlink.com 1.10,2013-10-25 16:00:00,
2013-10-25 11:15:00,43.4,30.0,30.32,West,261,1.0,7.0,60,0.00,,,0.00,weatherlink.com 1.10,2013-10-25 16:15:00,
2013-10-25 11:30:00,44.8,30.0,30.32,West,267,6.0,8.0,57,0.00,,,0.00,weatherlink.com 1.10,2013-10-25 16:30:00,
2013-10-25 11:45:00,45.9,30.0,30.31,West,260,3.0,9.0,54,0.00,,,0.00,weatherlink.com 1.10,2013-10-25 16:45:00,
2013-10-25 12:00:00,46.0,30.0,30.30,WNW,297,3.0,9.0,54,0.00,,,0.00,weatherlink.com 1.10,2013-10-25 17:00:00,
2013-10-25 12:15:00,46.4,30.0,30.29,SSE,155,3.0,9.0,54,0.00,,,0.00,weatherlink.com 1.10,2013-10-25 17:15:00,
2013-10-25 12:30:00,46.5,31.0,30.27,SW,226,2.0,12.0,55,0.00,,,0.00,weatherlink.com 1.10,2013-10-25 17:30:00,
2013-10-25 12:45:00,47.5,31.0,30.27,WNW,282,4.0,13.0,54,0.00,,,0.00,weatherlink.com 1.10,2013-10-25 17:45:00,
2013-10-25 13:00:00,48.2,32.0,30.26,SSE,159,1.0,12.0,54,0.00,,,0.00,weatherlink.com 1.10,2013-10-25 18:00:00,
2013-10-25 13:15:00,48.5,32.0,30.25,West,280,4.0,9.0,54,0.00,,,0.00,weatherlink.com 1.10,2013-10-25 18:15:00,
2013-10-25 13:31:00,49.1,31.0,30.23,SW,226,6.0,15.0,51,0.00,,,0.00,weatherlink.com 1.10,2013-10-25 18:31:00,
2013-10-25 13:46:00,49.8,32.0,30.22,West,259,4.0,13.0,51,0.00,,,0.00,weatherlink.com 1.10,2013-10-25 18:46:00,
2013-10-25 14:01:00,49.9,32.0,30.20,West,269,4.0,13.0,50,0.00,,,0.00,weatherlink.com 1.10,2013-10-25 19:01:00,
2013-10-25 14:16:00,50.4,31.0,30.20,West,263,5.0,12.0,47,0.00,,,0.00,weatherlink.com 1.10,2013-10-25 19:16:00,
2013-10-25 14:31:00,50.4,31.0,30.19,SSE,159,2.0,11.0,48,0.00,,,0.00,weatherlink.com 1.10,2013-10-25 19:31:00,
2013-10-25 14:46:00,50.8,32.0,30.18,West,274,6.0,11.0,48,0.00,,,0.00,weatherlink.com 1.10,2013-10-25 19:46:00,
2013-10-25 15:01:00,51.0,31.0,30.17,NW,308,7.0,11.0,47,0.00,,,0.00,weatherlink.com 1.10,2013-10-25 20:01:00,
2013-10-25 15:16:00,51.1,31.0,30.17,WSW,252,7.0,10.0,46,0.00,,,0.00,weatherlink.com 1.10,2013-10-25 20:16:00,
2013-10-25 15:31:00,51.5,31.0,30.16,WNW,297,3.0,13.0,46,0.00,,,0.00,weatherlink.com 1.10,2013-10-25 20:31:00,
2013-10-25 15:46:00,51.6,31.0,30.15,NNW,347,3.0,10.0,46,0.00,,,0.00,weatherlink.com 1.10,2013-10-25 20:46:00,
2013-10-25 16:01:00,51.7,31.0,30.14,West,274,2.0,9.0,46,0.00,,,0.00,weatherlink.com 1.10,2013-10-25 21:01:00,
2013-10-25 16:16:00,51.8,31.0,30.14,WNW,283,3.0,12.0,46,0.00,,,0.00,weatherlink.com 1.10,2013-10-25 21:16:00,
2013-10-25 16:31:00,51.4,31.0,30.13,West,277,2.0,8.0,46,0.00,,,0.00,weatherlink.com 1.10,2013-10-25 21:31:00,
2013-10-25 16:46:00,50.7,30.0,30.12,WNW,290,3.0,13.0,46,0.00,,,0.00,weatherlink.com 1.10,2013-10-25 21:46:00,
2013-10-25 17:01:00,50.8,31.0,30.11,WNW,302,2.0,10.0,47,0.00,,,0.00,weatherlink.com 1.10,2013-10-25 22:01:00,
2013-10-25 17:16:00,50.7,31.0,30.09,WNW,285,4.0,10.0,47,0.00,,,0.00,weatherlink.com 1.10,2013-10-25 22:16:00,
2013-10-25 17:31:00,50.3,30.0,30.08,WSW,243,3.0,10.0,46,0.00,,,0.00,weatherlink.com 1.10,2013-10-25 22:31:00,
2013-10-25 17:46:00,49.7,30.0,30.07,West,277,3.0,6.0,47,0.00,,,0.00,weatherlink.com 1.10,2013-10-25 22:46:00,
2013-10-25 18:01:00,49.0,30.0,30.06,WNW,291,2.0,7.0,48,0.00,,,0.00,weatherlink.com 1.10,2013-10-25 23:01:00,
2013-10-25 18:16:00,48.5,30.0,30.06,ESE,113,2.0,8.0,49,0.00,,,0.00,weatherlink.com 1.10,2013-10-25 23:16:00,
2013-10-25 18:31:00,48.2,30.0,30.05,West,271,1.0,9.0,50,0.00,,,0.00,weatherlink.com 1.10,2013-10-25 23:31:00,
2013-10-25 18:46:00,48.1,30.0,30.05,SW,228,2.0,7.0,50,0.00,,,0.00,weatherlink.com 1.10,2013-10-25 23:46:00,
2013-10-25 19:01:00,48.1,30.0,30.04,NE,46,2.0,12.0,49,0.00,,,0.00,weatherlink.com 1.10,2013-10-26 00:01:00,
2013-10-25 19:16:00,48.2,30.0,30.04,South,172,0.0,10.0,49,0.00,,,0.00,weatherlink.com 1.10,2013-10-26 00:16:00,
2013-10-25 19:31:00,48.0,29.0,30.03,West,260,2.0,7.0,49,0.00,,,0.00,weatherlink.com 1.10,2013-10-26 00:31:00,
2013-10-25 19:46:00,47.7,29.0,30.02,West,273,4.0,7.0,49,0.00,,,0.00,weatherlink.com 1.10,2013-10-26 00:46:00,
2013-10-25 20:01:00,47.6,29.0,30.01,SSW,200,2.0,12.0,48,0.00,,,0.00,weatherlink.com 1.10,2013-10-26 01:01:00,
2013-10-25 20:17:00,47.7,29.0,29.99,SW,225,4.0,11.0,48,0.00,,,0.00,weatherlink.com 1.10,2013-10-26 01:17:00,
2013-10-25 20:32:00,47.8,28.0,29.99,West,271,2.0,9.0,47,0.00,,,0.00,weatherlink.com 1.10,2013-10-26 01:32:00,
2013-10-25 20:47:00,47.9,28.0,29.98,WSW,253,2.0,13.0,46,0.00,,,0.00,weatherlink.com 1.10,2013-10-26 01:47:00,
2013-10-25 21:02:00,47.8,28.0,29.98,SW,224,3.0,9.0,47,0.00,,,0.00,weatherlink.com 1.10,2013-10-26 02:02:00,
2013-10-25 21:17:00,48.2,28.0,29.98,SSW,200,8.0,16.0,45,0.00,,,0.00,weatherlink.com 1.10,2013-10-26 02:17:00,
2013-10-25 21:32:00,48.5,27.0,29.97,WSW,248,2.0,16.0,44,0.00,,,0.00,weatherlink.com 1.10,2013-10-26 02:32:00,
2013-10-25 21:47:00,48.5,28.0,29.97,West,269,5.0,12.0,45,0.00,,,0.00,weatherlink.com 1.10,2013-10-26 02:47:00,
2013-10-25 22:02:00,48.6,27.0,29.96,West,264,3.0,14.0,44,0.00,,,0.00,weatherlink.com 1.10,2013-10-26 03:02:00,
2013-10-25 22:17:00,48.7,27.0,29.96,WSW,241,9.0,14.0,44,0.00,,,0.00,weatherlink.com 1.10,2013-10-26 03:17:00,
2013-10-25 22:32:00,48.7,27.0,29.95,SSW,201,5.0,14.0,44,0.00,,,0.00,weatherlink.com 1.10,2013-10-26 03:32:00,
2013-10-25 22:47:00,48.7,27.0,29.95,West,271,5.0,14.0,44,0.00,,,0.00,weatherlink.com 1.10,2013-10-26 03:47:00,
2013-10-25 23:02:00,48.3,28.0,29.95,NW,314,7.0,15.0,45,0.00,,,0.00,weatherlink.com 1.10,2013-10-26 04:02:00,
2013-10-25 23:17:00,47.8,28.0,29.93,WSW,238,4.0,17.0,46,0.00,,,0.00,weatherlink.com 1.10,2013-10-26 04:17:00,
2013-10-25 23:32:00,47.3,28.0,29.93,West,266,7.0,13.0,47,0.00,,,0.00,weatherlink.com 1.10,2013-10-26 04:32:00,
2013-10-25 23:47:00,47.1,28.0,29.92,West,278,3.0,15.0,48,0.00,,,0.00,weatherlink.com 1.10,2013-10-26 04:47:00,